createdAt,value
2017-12-12T00:00:42.137Z,69.10
2017-12-12T00:03:08.833Z,69.30
2017-12-12T00:05:35.527Z,69.20
2017-12-12T00:08:02.221Z,69.50
2017-12-12T00:10:28.870Z,69.60
2017-12-12T00:12:55.566Z,70.00
2017-12-12T00:15:22.229Z,70.70
2017-12-12T00:17:49.630Z,70.50
2017-12-12T00:20:16.302Z,70.50
2017-12-12T00:22:42.974Z,70.70
2017-12-12T00:25:10.408Z,71.60
2017-12-12T00:27:37.075Z,71.50
2017-12-12T00:30:04.514Z,72.30
2017-12-12T00:32:31.178Z,72.50
2017-12-12T00:34:58.579Z,71.80
2017-12-12T00:37:25.252Z,71.80
2017-12-12T00:39:51.907Z,71.80
2017-12-12T00:42:18.536Z,72.20
2017-12-12T00:44:45.183Z,72.00
2017-12-12T00:47:11.810Z,73.30
2017-12-12T00:49:38.473Z,72.80
2017-12-12T00:52:05.129Z,72.80
2017-12-12T00:54:32.546Z,75.50
2017-12-12T00:56:59.240Z,75.50
2017-12-12T00:59:26.617Z,76.70
2017-12-12T01:01:53.305Z,76.70
2017-12-12T01:04:20.702Z,78.70
2017-12-12T01:06:48.099Z,78.90
2017-12-12T01:09:14.801Z,78.90
2017-12-12T01:11:42.195Z,80.30
2017-12-12T01:14:08.836Z,80.20
2017-12-12T01:16:35.510Z,80.70
2017-12-12T01:19:02.214Z,81.10
2017-12-12T01:21:28.860Z,83.60
2017-12-12T01:23:55.566Z,85.20
2017-12-12T01:26:22.950Z,86.10
2017-12-12T01:28:49.577Z,86.10
2017-12-12T01:31:17.070Z,88.00
2017-12-12T01:33:43.747Z,88.00
2017-12-12T01:36:10.394Z,88.30
2017-12-12T01:38:37.117Z,88.50
2017-12-12T01:41:03.841Z,90.50
2017-12-12T01:43:30.571Z,91.00
2017-12-12T01:45:57.310Z,91.40
2017-12-12T01:48:24.022Z,92.30
2017-12-12T01:50:50.794Z,92.60
2017-12-12T01:53:18.283Z,93.60
2017-12-12T01:55:45.120Z,93.60
2017-12-12T01:58:11.869Z,93.60
2017-12-12T02:00:38.614Z,94.30
2017-12-12T02:03:05.317Z,94.10
2017-12-12T02:05:32.245Z,94.10
2017-12-12T02:07:58.995Z,94.80
2017-12-12T02:10:25.767Z,94.70
2017-12-12T02:12:53.286Z,95.80
2017-12-12T02:15:20.017Z,95.80
2017-12-12T02:17:46.734Z,95.90
2017-12-12T02:20:13.476Z,95.70
2017-12-12T02:22:40.282Z,95.80
2017-12-12T02:25:07.055Z,96.50
2017-12-12T02:27:34.481Z,96.60
2017-12-12T02:30:01.210Z,96.50
2017-12-12T02:32:27.974Z,97.30
2017-12-12T02:34:54.728Z,97.30
2017-12-12T02:37:21.487Z,97.30
2017-12-12T02:39:48.967Z,97.10
2017-12-12T02:42:15.695Z,97.10
2017-12-12T02:44:42.509Z,97.20
2017-12-12T02:47:09.243Z,97.80
2017-12-12T02:49:36.018Z,97.80
2017-12-12T02:52:02.779Z,97.90
2017-12-12T02:54:29.526Z,97.60
2017-12-12T02:56:57.009Z,97.40
2017-12-12T02:59:23.760Z,97.40
2017-12-12T03:01:50.486Z,97.80
2017-12-12T03:04:17.205Z,97.90
2017-12-12T03:06:44.685Z,98.30
2017-12-12T03:09:11.459Z,98.20
2017-12-12T03:11:38.184Z,97.90
2017-12-12T03:14:05.018Z,97.90
2017-12-12T03:16:31.777Z,98.10
2017-12-12T03:18:58.507Z,97.80
2017-12-12T03:21:25.270Z,97.90
2017-12-12T03:23:52.002Z,98.10
2017-12-12T03:26:18.740Z,97.60
2017-12-12T03:28:45.512Z,97.80
2017-12-12T03:31:12.284Z,98.10
2017-12-12T03:33:39.078Z,97.60
2017-12-12T03:36:05.801Z,97.60
2017-12-12T03:38:33.332Z,97.90
2017-12-12T03:41:00.087Z,97.90
2017-12-12T03:43:26.857Z,97.90
2017-12-12T03:45:54.341Z,97.90
2017-12-12T03:48:21.099Z,97.90
2017-12-12T03:50:47.816Z,97.90
2017-12-12T03:53:14.535Z,98.10
2017-12-12T03:55:41.272Z,98.10
2017-12-12T03:58:08.019Z,97.30
2017-12-12T04:00:34.750Z,97.20
2017-12-12T04:03:01.468Z,97.00
2017-12-12T04:05:28.181Z,96.90
2017-12-12T04:07:55.613Z,96.60
2017-12-12T04:10:22.424Z,96.50
2017-12-12T04:12:49.199Z,95.40
2017-12-12T04:15:15.929Z,95.00
2017-12-12T04:17:42.657Z,94.10
2017-12-12T04:20:09.378Z,94.10
2017-12-12T04:22:36.095Z,93.50
2017-12-12T04:25:03.533Z,93.20
2017-12-12T04:27:30.274Z,93.20
2017-12-12T04:29:57.006Z,93.30
2017-12-12T04:32:23.761Z,93.20
2017-12-12T04:34:51.304Z,93.30
2017-12-12T04:37:18.937Z,93.60
2017-12-12T04:39:45.680Z,93.00
2017-12-12T04:42:13.178Z,94.00
2017-12-12T04:44:39.872Z,94.00
2017-12-12T04:47:07.341Z,94.00
2017-12-12T04:49:34.831Z,93.80
2017-12-12T04:52:01.583Z,93.70
2017-12-12T04:54:28.329Z,94.10
2017-12-12T04:56:55.109Z,93.60
2017-12-12T04:59:21.870Z,93.30
2017-12-12T05:01:49.372Z,93.50
2017-12-12T05:04:16.122Z,93.50
2017-12-12T05:06:42.812Z,93.80
2017-12-12T05:09:10.305Z,93.30
2017-12-12T05:11:37.079Z,93.30
2017-12-12T05:14:03.822Z,93.30
2017-12-12T05:16:30.545Z,93.50
2017-12-12T05:18:57.290Z,93.50
2017-12-12T05:21:24.020Z,91.90
2017-12-12T05:23:50.773Z,90.80
2017-12-12T05:26:17.520Z,87.90
2017-12-12T05:28:44.249Z,85.60
2017-12-12T05:31:10.991Z,83.70
2017-12-12T05:33:38.505Z,80.30
2017-12-12T05:36:05.288Z,80.20
2017-12-12T05:38:33.662Z,78.50
2017-12-12T05:41:00.359Z,78.50
2017-12-12T05:43:27.065Z,78.20
2017-12-12T05:45:54.554Z,79.60
2017-12-12T05:48:21.300Z,79.60
2017-12-12T05:50:48.076Z,81.60
2017-12-12T05:53:14.856Z,84.10
2017-12-12T05:55:42.290Z,87.80
2017-12-12T05:58:09.990Z,87.70
2017-12-12T06:00:37.525Z,90.50
2017-12-12T06:03:04.302Z,90.50
2017-12-12T06:05:31.037Z,90.90
2017-12-12T06:07:58.547Z,91.40
2017-12-12T06:10:25.338Z,91.40
2017-12-12T06:12:52.849Z,91.20
2017-12-12T06:15:19.588Z,91.20
2017-12-12T06:17:46.323Z,91.60
2017-12-12T06:20:13.077Z,91.30
2017-12-12T06:22:39.830Z,91.20
2017-12-12T06:25:06.572Z,91.20
2017-12-12T06:27:33.293Z,91.30
2017-12-12T06:30:00.039Z,91.70
2017-12-12T06:32:26.743Z,91.90
2017-12-12T06:34:53.503Z,92.00
2017-12-12T06:37:20.246Z,91.70
2017-12-12T06:39:46.937Z,91.70
2017-12-12T06:42:13.901Z,92.20
2017-12-12T06:44:40.669Z,92.30
2017-12-12T06:47:07.374Z,92.50
2017-12-12T06:49:34.106Z,92.50
2017-12-12T06:52:00.872Z,92.30
2017-12-12T06:54:27.626Z,92.50
2017-12-12T06:56:54.378Z,92.60
2017-12-12T06:59:21.118Z,92.30
2017-12-12T07:01:47.870Z,92.10
2017-12-12T07:04:14.601Z,91.90
2017-12-12T07:06:41.317Z,91.80
2017-12-12T07:09:08.059Z,92.20
2017-12-12T07:11:34.837Z,92.30
2017-12-12T07:14:01.593Z,92.20
2017-12-12T07:16:28.338Z,92.20
2017-12-12T07:18:55.096Z,92.10
2017-12-12T07:21:22.590Z,91.50
2017-12-12T07:23:49.288Z,91.50
2017-12-12T07:26:15.973Z,91.20
2017-12-12T07:28:42.677Z,90.70
2017-12-12T07:31:09.386Z,90.30
2017-12-12T07:33:37.802Z,90.00
2017-12-12T07:36:04.512Z,89.10
2017-12-12T07:38:31.267Z,89.40
2017-12-12T07:40:57.942Z,89.50
2017-12-12T07:43:24.594Z,89.70
2017-12-12T07:45:52.111Z,90.20
2017-12-12T07:48:18.822Z,90.20
2017-12-12T07:50:45.512Z,89.80
2017-12-12T07:53:12.230Z,90.30
2017-12-12T07:55:38.955Z,90.20
2017-12-12T07:58:05.694Z,90.10
2017-12-12T08:00:32.445Z,88.80
2017-12-12T08:02:59.146Z,86.30
2017-12-12T08:05:25.869Z,85.80
2017-12-12T08:07:52.620Z,85.00
2017-12-12T08:10:19.345Z,83.80
2017-12-12T08:12:46.032Z,84.90
2017-12-12T08:15:12.734Z,84.30
2017-12-12T08:17:39.424Z,83.80
2017-12-12T08:20:06.835Z,82.40
2017-12-12T08:22:33.517Z,82.40
2017-12-12T08:25:00.194Z,81.40
2017-12-12T08:27:26.839Z,80.60
2017-12-12T08:29:53.530Z,80.30
2017-12-12T08:32:20.277Z,77.90
2017-12-12T08:34:46.984Z,76.50
2017-12-12T08:37:13.922Z,75.70
2017-12-12T08:39:40.625Z,75.10
2017-12-12T08:42:08.090Z,73.50
2017-12-12T08:44:35.522Z,73.00
2017-12-12T08:47:02.192Z,72.90
2017-12-12T08:49:28.914Z,70.40
2017-12-12T08:51:55.745Z,70.60
2017-12-12T08:54:22.457Z,70.60
2017-12-12T08:56:49.156Z,72.20
2017-12-12T08:59:16.043Z,71.40
2017-12-12T09:01:42.896Z,71.10
2017-12-12T09:04:10.516Z,70.60
2017-12-12T09:06:37.196Z,71.70
2017-12-12T09:09:04.729Z,68.20
2017-12-12T09:11:31.398Z,69.00
2017-12-12T09:13:58.921Z,66.70
2017-12-12T09:16:25.637Z,66.60
2017-12-12T09:18:52.291Z,66.20
2017-12-12T09:21:19.045Z,66.40
2017-12-12T09:23:45.741Z,66.00
2017-12-12T09:26:12.637Z,65.90
2017-12-12T09:28:39.307Z,66.10
2017-12-12T09:31:05.970Z,65.70
2017-12-12T09:33:33.401Z,64.90
2017-12-12T09:36:00.067Z,64.90
2017-12-12T09:38:27.507Z,60.80
2017-12-12T09:40:54.260Z,60.80
2017-12-12T09:43:22.611Z,59.50
2017-12-12T09:45:49.336Z,59.40
2017-12-12T09:48:16.228Z,60.30
2017-12-12T09:50:42.934Z,61.20
2017-12-12T09:53:09.648Z,61.90
2017-12-12T09:55:36.326Z,61.30
2017-12-12T09:58:03.034Z,60.90
2017-12-12T10:00:29.807Z,58.80
2017-12-12T10:02:56.510Z,58.30
2017-12-12T10:05:23.996Z,56.70
2017-12-12T10:07:50.681Z,56.70
2017-12-12T10:10:17.392Z,57.00
2017-12-12T10:12:44.116Z,56.80
2017-12-12T10:15:10.872Z,57.00
2017-12-12T10:17:37.591Z,57.20
2017-12-12T10:20:05.007Z,59.30
2017-12-12T10:22:31.709Z,59.20
2017-12-12T10:24:58.367Z,60.70
2017-12-12T10:27:25.053Z,62.30
2017-12-12T10:29:51.849Z,62.90
2017-12-12T10:32:18.529Z,63.10
2017-12-12T10:34:45.202Z,63.10
2017-12-12T10:37:12.719Z,61.10
2017-12-12T10:39:39.477Z,61.00
2017-12-12T10:42:06.209Z,58.70
2017-12-12T10:44:32.949Z,56.60
2017-12-12T10:46:59.745Z,55.50
2017-12-12T10:49:27.270Z,54.10
2017-12-12T10:51:53.987Z,54.00
2017-12-12T10:54:20.766Z,54.20
2017-12-12T10:56:47.604Z,54.70
2017-12-12T10:59:14.387Z,54.90
2017-12-12T11:01:41.851Z,56.60
2017-12-12T11:04:09.247Z,59.00
2017-12-12T11:06:35.934Z,59.00
2017-12-12T11:09:02.716Z,61.70
2017-12-12T11:11:29.449Z,62.90
2017-12-12T11:13:56.126Z,63.30
2017-12-12T11:16:22.759Z,63.20
2017-12-12T11:18:50.283Z,64.20
2017-12-12T11:21:17.689Z,67.00
2017-12-12T11:23:44.367Z,67.00
2017-12-12T11:26:11.194Z,67.30
2017-12-12T11:28:37.907Z,70.10
2017-12-12T11:31:04.721Z,70.50
2017-12-12T11:33:32.238Z,64.60
2017-12-12T11:35:59.694Z,64.60
2017-12-12T11:38:26.349Z,64.60
2017-12-12T11:40:53.021Z,65.00
2017-12-12T11:43:19.701Z,65.30
2017-12-12T11:45:46.399Z,65.20
2017-12-12T11:48:13.150Z,65.50
2017-12-12T11:50:39.851Z,66.20
2017-12-12T11:53:06.701Z,66.60
2017-12-12T11:55:33.471Z,66.80
2017-12-12T11:58:00.246Z,67.30
2017-12-12T12:00:27.831Z,67.90
2017-12-12T12:02:54.514Z,67.80
2017-12-12T12:05:21.254Z,66.00
2017-12-12T12:07:47.986Z,64.70
2017-12-12T12:10:14.743Z,62.20
2017-12-12T12:12:41.468Z,64.20
2017-12-12T12:15:08.304Z,63.60
2017-12-12T12:17:35.068Z,63.00
2017-12-12T12:20:01.797Z,63.30
2017-12-12T12:22:29.429Z,62.70
2017-12-12T12:24:56.961Z,63.40
2017-12-12T12:27:23.693Z,63.40
2017-12-12T12:29:50.416Z,64.10
2017-12-12T12:32:17.147Z,67.00
2017-12-12T12:34:43.883Z,67.60
2017-12-12T12:37:10.649Z,69.90
2017-12-12T12:39:37.347Z,71.70
2017-12-12T12:42:04.120Z,74.70
2017-12-12T12:44:30.828Z,77.00
2017-12-12T12:46:57.533Z,80.00
2017-12-12T12:49:24.241Z,84.00
2017-12-12T12:51:51.637Z,87.80
2017-12-12T12:54:18.352Z,87.70
2017-12-12T12:56:45.141Z,89.50
2017-12-12T12:59:12.539Z,91.10
2017-12-12T13:01:39.969Z,91.50
2017-12-12T13:04:06.723Z,91.50
2017-12-12T13:06:33.414Z,92.10
2017-12-12T13:09:00.121Z,92.70
2017-12-12T13:11:27.596Z,93.50
2017-12-12T13:13:55.047Z,93.80
2017-12-12T13:16:22.433Z,94.20
2017-12-12T13:18:49.133Z,94.20
2017-12-12T13:21:15.811Z,94.30
2017-12-12T13:23:42.490Z,95.00
2017-12-12T13:26:09.200Z,95.00
2017-12-12T13:28:35.884Z,95.30
2017-12-12T13:31:02.576Z,95.50
2017-12-12T13:33:30.008Z,96.10
2017-12-12T13:35:56.768Z,96.10
2017-12-12T13:38:24.246Z,96.80
2017-12-12T13:40:51.696Z,96.70
2017-12-12T13:43:19.127Z,97.00
2017-12-12T13:45:45.802Z,97.00
2017-12-12T13:48:13.246Z,97.30
2017-12-12T13:50:40.167Z,97.30
2017-12-12T13:53:06.871Z,97.50
2017-12-12T13:55:33.593Z,97.80
2017-12-12T13:58:01.022Z,98.40
2017-12-12T14:00:27.714Z,98.40
2017-12-12T14:02:54.374Z,98.40
2017-12-12T14:05:21.035Z,98.50
2017-12-12T14:07:47.711Z,98.50
2017-12-12T14:10:14.358Z,98.70
2017-12-12T14:12:41.000Z,98.60
2017-12-12T14:15:08.512Z,98.80
2017-12-12T14:17:35.182Z,98.80
2017-12-12T14:20:01.873Z,99.10
2017-12-12T14:22:28.569Z,99.30
2017-12-12T14:24:55.246Z,99.50
2017-12-12T14:27:22.640Z,99.70
2017-12-12T14:29:49.321Z,99.70
2017-12-12T14:32:15.998Z,99.90
2017-12-12T14:34:42.657Z,99.90
2017-12-12T14:37:09.343Z,99.90
2017-12-12T14:39:36.030Z,99.90
2017-12-12T14:42:03.452Z,99.90
2017-12-12T14:44:30.123Z,99.90
2017-12-12T14:46:57.514Z,99.90
2017-12-12T14:49:24.249Z,99.90
2017-12-12T14:51:50.942Z,99.90
2017-12-12T14:54:17.634Z,99.90
2017-12-12T14:56:44.347Z,99.90
2017-12-12T14:59:11.764Z,99.90
2017-12-12T15:01:38.431Z,99.90
2017-12-12T15:04:05.103Z,99.90
2017-12-12T15:06:32.517Z,99.90
2017-12-12T15:08:59.197Z,99.90
2017-12-12T15:11:26.621Z,99.90
2017-12-12T15:13:53.313Z,99.90
2017-12-12T15:16:20.744Z,99.90
2017-12-12T15:18:47.402Z,99.90
2017-12-12T15:21:14.839Z,99.90
2017-12-12T15:23:41.497Z,99.90
2017-12-12T15:26:08.160Z,99.90
2017-12-12T15:28:35.595Z,99.40
2017-12-12T15:31:02.250Z,99.30
2017-12-12T15:33:29.772Z,98.70
2017-12-12T15:35:56.530Z,98.70
2017-12-12T15:38:23.205Z,98.20
2017-12-12T15:40:51.754Z,97.80
2017-12-12T15:43:18.444Z,97.80
2017-12-12T15:45:45.111Z,97.20
2017-12-12T15:48:11.816Z,97.20
2017-12-12T15:50:39.303Z,97.00
2017-12-12T15:53:06.044Z,97.00
2017-12-12T15:55:32.733Z,97.10
2017-12-12T15:57:59.402Z,97.20
2017-12-12T16:00:26.083Z,96.90
2017-12-12T16:02:52.794Z,97.10
2017-12-12T16:05:19.475Z,97.10
2017-12-12T16:07:46.166Z,97.10
2017-12-12T16:10:12.835Z,97.30
2017-12-12T16:12:40.269Z,97.50
2017-12-12T16:15:06.962Z,97.40
2017-12-12T16:17:33.618Z,97.50
2017-12-12T16:20:00.298Z,97.60
2017-12-12T16:22:26.967Z,97.70
2017-12-12T16:24:53.651Z,97.70
2017-12-12T16:27:20.351Z,98.00
2017-12-12T16:29:47.919Z,97.90
2017-12-12T16:32:14.745Z,97.90
2017-12-12T16:34:41.497Z,97.60
2017-12-12T16:37:08.950Z,97.80
2017-12-12T16:39:36.484Z,97.60
2017-12-12T16:42:03.170Z,97.60
2017-12-12T16:44:30.668Z,97.60
2017-12-12T16:46:57.377Z,97.60
2017-12-12T16:49:24.816Z,97.40
2017-12-12T16:51:51.523Z,97.40
2017-12-12T16:54:18.219Z,97.20
2017-12-12T16:56:45.670Z,97.10
2017-12-12T16:59:12.360Z,97.10
2017-12-12T17:01:39.030Z,97.20
2017-12-12T17:04:05.686Z,97.40
2017-12-12T17:06:33.142Z,97.10
2017-12-12T17:08:59.817Z,97.20
2017-12-12T17:11:27.230Z,97.00
2017-12-12T17:13:53.889Z,97.00
2017-12-12T17:16:20.578Z,97.10
2017-12-12T17:18:47.228Z,96.80
2017-12-12T17:21:13.902Z,96.90
2017-12-12T17:23:40.602Z,96.80
2017-12-12T17:26:08.077Z,96.80
2017-12-12T17:28:34.763Z,97.20
2017-12-12T17:31:01.431Z,96.70
2017-12-12T17:33:28.870Z,96.90
2017-12-12T17:35:55.559Z,96.80
2017-12-12T17:38:22.275Z,96.70
2017-12-12T17:40:49.691Z,96.80
2017-12-12T17:43:16.762Z,96.80
2017-12-12T17:45:43.445Z,96.60
2017-12-12T17:48:10.135Z,96.40
2017-12-12T17:50:36.839Z,96.60
2017-12-12T17:53:04.497Z,96.00
2017-12-12T17:55:31.197Z,96.10
2017-12-12T17:57:58.712Z,95.50
2017-12-12T18:00:26.411Z,95.60
2017-12-12T18:02:53.126Z,95.40
2017-12-12T18:05:20.685Z,95.40
2017-12-12T18:07:47.388Z,95.50
2017-12-12T18:10:14.025Z,95.70
2017-12-12T18:12:40.689Z,95.10
2017-12-12T18:15:08.103Z,95.30
2017-12-12T18:17:34.771Z,95.30
2017-12-12T18:20:01.524Z,95.10
2017-12-12T18:22:28.252Z,95.00
2017-12-12T18:24:54.904Z,95.20
2017-12-12T18:27:21.586Z,95.10
2017-12-12T18:29:48.242Z,95.10
2017-12-12T18:32:14.900Z,95.40
2017-12-12T18:34:41.619Z,95.30
2017-12-12T18:37:08.285Z,95.90
2017-12-12T18:39:34.985Z,96.00
2017-12-12T18:42:02.384Z,95.80
2017-12-12T18:44:29.103Z,95.80
2017-12-12T18:46:55.789Z,96.60
2017-12-12T18:49:22.424Z,95.60
2017-12-12T18:51:49.109Z,96.30
2017-12-12T18:54:16.530Z,97.50
2017-12-12T18:56:43.260Z,97.50
2017-12-12T18:59:10.109Z,98.00
2017-12-12T19:01:37.017Z,98.30
2017-12-12T19:04:04.698Z,98.80
2017-12-12T19:06:31.750Z,98.80
2017-12-12T19:08:58.949Z,98.70
2017-12-12T19:11:26.244Z,99.00
2017-12-12T19:13:54.238Z,99.90
2017-12-12T19:16:21.549Z,99.90
2017-12-12T19:18:48.750Z,99.90
2017-12-12T19:21:15.830Z,99.90
2017-12-12T19:23:42.859Z,99.90
2017-12-12T19:26:09.857Z,99.50
2017-12-12T19:28:36.785Z,99.90
2017-12-12T19:31:04.425Z,99.90
2017-12-12T19:33:31.429Z,99.90
2017-12-12T19:35:58.318Z,99.90
2017-12-12T19:38:25.091Z,99.90
2017-12-12T19:40:51.809Z,99.90
2017-12-12T19:43:18.578Z,99.90
2017-12-12T19:45:45.333Z,99.90
2017-12-12T19:48:12.029Z,99.90
2017-12-12T19:50:38.740Z,99.90
2017-12-12T19:53:05.414Z,99.90
2017-12-12T19:55:32.248Z,99.90
2017-12-12T19:57:59.721Z,99.90
2017-12-12T20:00:27.199Z,99.90
2017-12-12T20:02:53.910Z,99.90
2017-12-12T20:05:21.963Z,99.90
2017-12-12T20:07:48.629Z,99.90
2017-12-12T20:10:16.108Z,99.90
2017-12-12T20:12:42.787Z,99.90
2017-12-12T20:15:09.447Z,99.90
2017-12-12T20:17:36.186Z,99.90
2017-12-12T20:20:02.922Z,99.90
2017-12-12T20:22:30.364Z,99.90
2017-12-12T20:24:57.066Z,99.90
2017-12-12T20:27:24.526Z,99.90
2017-12-12T20:29:51.213Z,99.90
2017-12-12T20:32:17.969Z,99.90
2017-12-12T20:34:44.697Z,99.90
2017-12-12T20:37:11.421Z,99.90
2017-12-12T20:39:38.852Z,99.90
2017-12-12T20:42:05.522Z,99.90
2017-12-12T20:44:32.914Z,99.90
2017-12-12T20:46:59.627Z,99.90
2017-12-12T20:49:27.063Z,99.90
2017-12-12T20:51:53.739Z,99.90
2017-12-12T20:54:20.496Z,99.90
2017-12-12T20:56:47.402Z,99.90
2017-12-12T20:59:14.344Z,99.90
2017-12-12T21:01:41.320Z,99.90
2017-12-12T21:04:08.255Z,99.90
2017-12-12T21:06:35.788Z,99.90
2017-12-12T21:09:02.703Z,99.90
2017-12-12T21:11:29.545Z,99.90
2017-12-12T21:13:56.338Z,99.90
2017-12-12T21:16:23.129Z,99.90
2017-12-12T21:18:49.880Z,99.90
2017-12-12T21:21:16.610Z,99.90
2017-12-12T21:23:43.270Z,99.90
2017-12-12T21:26:09.953Z,99.90
2017-12-12T21:28:36.924Z,99.90
2017-12-12T21:31:04.331Z,99.90
2017-12-12T21:33:31.162Z,99.90
2017-12-12T21:35:57.902Z,99.40
2017-12-12T21:38:24.576Z,99.20
2017-12-12T21:40:51.257Z,99.10
2017-12-12T21:43:17.912Z,98.80
2017-12-12T21:45:45.328Z,99.00
2017-12-12T21:48:12.033Z,99.00
2017-12-12T21:50:38.703Z,99.50
2017-12-12T21:53:05.381Z,99.60
2017-12-12T21:55:32.045Z,99.40
2017-12-12T21:57:59.568Z,98.30
2017-12-12T22:00:26.221Z,98.30
2017-12-12T22:02:52.911Z,99.00
2017-12-12T22:05:19.573Z,99.20
2017-12-12T22:07:46.259Z,98.10
2017-12-12T22:10:12.901Z,98.60
2017-12-12T22:12:39.561Z,98.20
2017-12-12T22:15:06.959Z,99.10
2017-12-12T22:17:33.653Z,99.10
2017-12-12T22:20:00.367Z,99.60
2017-12-12T22:22:27.022Z,99.70
2017-12-12T22:24:53.694Z,99.90
2017-12-12T22:27:21.107Z,99.90
2017-12-12T22:29:47.746Z,99.90
2017-12-12T22:32:14.392Z,99.90
2017-12-12T22:34:41.055Z,99.90
2017-12-12T22:37:07.733Z,99.90
2017-12-12T22:39:35.196Z,99.90
2017-12-12T22:42:01.926Z,99.90
2017-12-12T22:44:29.302Z,99.90
2017-12-12T22:46:55.975Z,99.90
2017-12-12T22:49:22.730Z,99.90
2017-12-12T22:51:49.362Z,99.50
2017-12-12T22:54:16.028Z,99.50
2017-12-12T22:56:43.127Z,99.60
2017-12-12T22:59:09.900Z,99.80
2017-12-12T23:01:36.558Z,99.90
2017-12-12T23:04:03.228Z,99.90
2017-12-12T23:06:29.893Z,99.90
2017-12-12T23:08:57.299Z,99.90
2017-12-12T23:11:24.022Z,99.90
2017-12-12T23:13:50.666Z,99.90
2017-12-12T23:16:17.386Z,99.90
2017-12-12T23:18:44.077Z,99.90
2017-12-12T23:21:10.987Z,99.80
2017-12-12T23:23:37.702Z,99.90
2017-12-12T23:26:05.238Z,99.90
2017-12-12T23:28:31.903Z,99.90
2017-12-12T23:30:59.346Z,99.90
2017-12-12T23:33:26.088Z,99.90
2017-12-12T23:35:52.750Z,99.90
2017-12-12T23:38:19.527Z,99.90
2017-12-12T23:40:46.210Z,99.90
2017-12-12T23:43:12.876Z,99.90
2017-12-12T23:45:39.567Z,99.90
2017-12-12T23:48:06.218Z,99.90
2017-12-12T23:50:32.919Z,99.90
2017-12-12T23:53:00.333Z,99.90
2017-12-12T23:55:26.987Z,99.90
2017-12-12T23:57:53.676Z,99.90
